• Join FlightAware (Why Join?)
  • Login
  • US Flag 
02:41PM EDT


 

Airport Tracker/Info


-or-


 

Live Flight TrackerFlight Track Log ✈ CSN3260 ✈ 03-Jul-2013 ✈ ZGGG / CAN - ZGKL / KWL

Flight Track Log - Related Links

Times and Time Zones

All times are in EDT time to prevent confusion due to time zone crossing. See the CSN3260 flight status page for this flight to view local times or setup timezone preferences in your user account.

Time Position Orientation Groundspeed Altitude Reporting Facility
EDT Latitude Longitude Course Direction KTS MPH feet Rate Location/Type
09:37AM 23.3510 113.2700 209° Southwest 174 200 2,500  Level FlightAware
09:37AM 23.3410 113.2630 213° Southwest 189 217 2,900 1,800 Climbing FlightAware
09:37AM 23.3200 113.2510 208° Southwest 212 244 3,700 2,460 Climbing FlightAware
09:38AM 23.2930 113.2340 210° Southwest 223 257 5,200 2,940 Climbing FlightAware
09:38AM 23.2700 113.2110 223° Southwest 228 262 6,700 2,580 Climbing FlightAware
09:38AM 23.2680 113.1980 260° West 233 268 7,000 540 Climbing FlightAware
09:39AM 23.2790 113.1600 287° West 267 307 7,100 60 Climbing FlightAware
09:39AM 23.2920 113.1240 291° West 272 313 7,100 540 Level FlightAware
09:40AM 23.3070 113.0830 292° West 275 316 7,700 1,740 Climbing FlightAware
09:40AM 23.3220 113.0540 299° West 283 326 8,800 2,760 Climbing FlightAware
09:41AM 23.3480 113.0360 328° Northwest 298 343 9,800 2,220 Climbing FlightAware
09:41AM 23.3880 113.0170 336° Northwest 321 369 10,700 1,500 Climbing FlightAware
09:42AM 23.4350 112.9950 337° Northwest 356 410 11,400 1,980 Climbing FlightAware
09:42AM 23.4800 112.9740 337° Northwest 361 415 12,800 2,220 Climbing FlightAware
09:43AM 23.5570 112.9370 336° Northwest 388 447 14,400 1,860 Climbing FlightAware
09:44AM 23.6310 112.9020 337° Northwest 400 460 15,700 960 Climbing FlightAware
09:44AM 23.6870 112.8750 336° Northwest 401 461 15,700  Level FlightAware
09:45AM 23.7860 112.8280 337° Northwest 399 459 15,700  Level FlightAware
09:46AM 23.8350 112.8010 333° Northwest 394 453 15,700  Level FlightAware
09:46AM 23.8510 112.7840 316° Northwest 393 452 15,700  Level FlightAware
09:46AM 23.8720 112.7500 304° West 390 449 15,700  Level FlightAware
09:47AM 23.9000 112.6940 299° West 390 449 15,700 2,100 Level FlightAware
09:48AM 23.9300 112.6050 290° West 404 465 18,300 3,060 Climbing FlightAware
09:48AM 23.9620 112.5290 295° West 419 482 19,600 1,920 Climbing FlightAware
09:49AM 23.9940 112.4510 294° West 429 494 20,900 1,260 Climbing FlightAware
09:50AM 24.0370 112.3450 294° West 426 490 21,700 420 Climbing FlightAware
09:51AM 24.0800 112.2380 294° West 423 487 21,700  Level FlightAware
09:51AM 24.1110 112.1640 295° West 421 484 21,700  Level FlightAware
09:52AM 24.1420 112.0880 294° West 420 483 21,700  Level FlightAware
09:53AM 24.1780 111.9940 293° West 419 482 21,700  Level FlightAware
09:54AM 24.2090 111.9160 294° West 419 482 21,700  Level FlightAware
09:55AM 24.2520 111.8030 293° West 419 482 21,700  Level FlightAware
09:56AM 24.2760 111.7410 293° West 419 482 21,700  Level FlightAware
09:56AM 24.2980 111.6850 293° West 419 482 21,700  Level FlightAware
09:59AM 24.4066 111.4937 302° West  Level Estimated
10:00AM 24.4515 111.4144 302° West  Level Estimated
10:01AM 24.4963 111.3351 302° West  Level Estimated
10:02AM 24.5411 111.2557 302° West  Level Estimated
10:03AM 24.5858 111.1762 302° West  Level Estimated
10:04AM 24.6305 111.0967 302° West  Level Estimated
10:05AM 24.6752 111.0172 302° West  Level Estimated
10:06AM 24.7198 110.9376 302° West  Level Estimated
10:07AM 24.7644 110.8579 302° West  Level Estimated
10:08AM 24.8089 110.7782 302° West  Level Estimated
10:09AM 24.8534 110.6984 302° West  Level Estimated
10:10AM 24.8978 110.6186 302° West  Level Estimated
10:11AM 24.9422 110.5387 302° West  Level Estimated
10:12AM 24.9866 110.4587 301° West  Level Estimated
10:13AM 25.0309 110.3787 301° West  Level Estimated
10:14AM 25.0752 110.2986 301° West  Level Estimated
10:15AM 25.1194 110.2185 301° West  Level Estimated
10:16AM 25.1636 110.1383 301° West  Level Estimated
10:17AM 25.2077 110.0581 301° West  Level Estimated
10:18AM 25.2181 110.0392 301° West  Level Estimated
10:19AM 25.2181 110.0392 214° Southwest  Level Estimated
10:20AM 25.2181 110.0392 214° Southwest  Level Estimated
10:21AM 25.2181 110.0392 214° Southwest  Level Estimated
10:22AM 25.2181 110.0392 214° Southwest  Level Estimated
10:23AM 25.2181 110.0392 214° Southwest  Level Estimated
10:24AM 25.2181 110.0392 214° Southwest  Level Estimated
10:25AM 25.2181 110.0392 214° Southwest  Level Estimated
10:26AM 25.2181 110.0392 214° Southwest  Level Estimated
10:27AM 25.2181 110.0392 214° Southwest  Level Estimated
10:28AM 25.2181 110.0392 214° Southwest  Level Estimated
10:29AM 25.2181 110.0392 214° Southwest  Level Estimated
10:30AM 25.2181 110.0392 214° Southwest  Level Estimated
10:31AM 25.2181 110.0392 214° Southwest  Level Estimated